Aérodrome :
LOGIN :

S'inscrire | Disclaimer

   EN    FR    IT 

 










Légende :    VFR   VFR Marginal   IFR   IFR Intensif   IFR Très Intensif
Visi : 
Plafond : 
>= 8 km
>= 3000ft
5 à 8 km
1000 à 3000 ft
1500m à 5 km
500 à 1000 ft
800 à 1500m
200 à 500 ft
< 800m
< 200 ft
Symboles :   Orages  Brouillard  Fortes neiges  Fortes précipitations  Vent > 20 kt
SIGMETs :   Divers  Orages  Givrage  Turbulence  Onde Orograph.  Cendres Volcan.






- Altitude de l'aérodrome : 863 ft
- Code IATA : ZAZ


LEZG - Zaragoza Aragon

DERNIER METAR :
  • 222030Z 15005KT 6000 RA BKN035 OVC055 10/10 Q0991

METARs EXPIRÉS :
  • 222020Z 11006KT 5000 +RA BKN035 OVC055 11/11 Q0991
  • 222000Z 09006KT 060V120 9999 -RA BKN045 OVC055 11/11 Q0990
  • 221930Z 10007KT 060V140 9999 BKN045 OVC055 11/11 Q0990
  • 221900Z 10009KT 9999 -RA BKN045 OVC055 11/11 Q0990
  • 221830Z 12011KT 9999 SCT050 BKN070 OVC085 11/11 Q0990

TAF AMD TAF LEZG
Valide du 22 à 20h jusqu'au 23 à 18h UTC


222039Z 2220/2318 10010KT 9999 FEW030 TX14/2313Z TN07/2307Z
BECMG 2220/2222 22010KT
TEMPO 2220/2224 4000 RA
BECMG 2307/2309 29015KT



MET'MAP, la Météo Aéronautique d'un coup d'oeil ! - Copyright ORBIFLY Décembre 2007 - Disclaimer

ORBIFLY MET'MAP TEAM :

Programmation & Développement : Alexandra Zaïnal
Conception & Développement : Baudouin d'Aumeries
Co-Programmation & Développement : Marc-Olivier Méhu
Soutien technique & logistique : Manuel Goepfert

Contact : metmap@orbifly.com




SOURCES & CREDITS :

   NOAA